sensor_id;sensor_type;location;lat;lon;timestamp;P1;durP1;ratioP1;P2;durP2;ratioP2
33367;SDS011;19724;51.114;13.906;2023-04-06T00:00:58;11.50;;;6.72;;
33367;SDS011;19724;51.114;13.906;2023-04-06T00:03:24;12.32;;;7.25;;
33367;SDS011;19724;51.114;13.906;2023-04-06T00:05:50;15.73;;;8.52;;
33367;SDS011;19724;51.114;13.906;2023-04-06T00:08:15;11.13;;;6.90;;
33367;SDS011;19724;51.114;13.906;2023-04-06T00:10:41;13.00;;;7.75;;
33367;SDS011;19724;51.114;13.906;2023-04-06T00:13:06;8.82;;;6.07;;
33367;SDS011;19724;51.114;13.906;2023-04-06T00:15:32;13.52;;;6.70;;
33367;SDS011;19724;51.114;13.906;2023-04-06T00:17:58;12.60;;;7.40;;
33367;SDS011;19724;51.114;13.906;2023-04-06T00:20:24;14.05;;;7.78;;
33367;SDS011;19724;51.114;13.906;2023-04-06T00:22:49;11.10;;;7.18;;
33367;SDS011;19724;51.114;13.906;2023-04-06T00:25:15;12.57;;;7.72;;
33367;SDS011;19724;51.114;13.906;2023-04-06T00:27:41;10.55;;;7.13;;
33367;SDS011;19724;51.114;13.906;2023-04-06T00:30:07;14.60;;;8.32;;
33367;SDS011;19724;51.114;13.906;2023-04-06T00:32:34;13.48;;;8.45;;
33367;SDS011;19724;51.114;13.906;2023-04-06T00:34:59;13.00;;;7.30;;
33367;SDS011;19724;51.114;13.906;2023-04-06T00:37:26;13.45;;;8.48;;
33367;SDS011;19724;51.114;13.906;2023-04-06T00:39:52;14.10;;;8.10;;
33367;SDS011;19724;51.114;13.906;2023-04-06T00:42:17;12.80;;;7.95;;
33367;SDS011;19724;51.114;13.906;2023-04-06T00:44:50;18.33;;;8.02;;
33367;SDS011;19724;51.114;13.906;2023-04-06T00:47:16;12.45;;;7.65;;
33367;SDS011;19724;51.114;13.906;2023-04-06T00:49:42;12.88;;;8.27;;
33367;SDS011;19724;51.114;13.906;2023-04-06T00:52:07;14.77;;;8.55;;
33367;SDS011;19724;51.114;13.906;2023-04-06T00:54:33;12.45;;;7.82;;
33367;SDS011;19724;51.114;13.906;2023-04-06T00:56:58;14.30;;;8.02;;
33367;SDS011;19724;51.114;13.906;2023-04-06T00:59:24;16.92;;;8.48;;
33367;SDS011;19724;51.114;13.906;2023-04-06T01:01:51;15.23;;;8.57;;
33367;SDS011;19724;51.114;13.906;2023-04-06T01:04:16;12.27;;;7.28;;
33367;SDS011;19724;51.114;13.906;2023-04-06T01:06:42;15.35;;;8.85;;
33367;SDS011;19724;51.114;13.906;2023-04-06T01:09:07;14.27;;;7.35;;
33367;SDS011;19724;51.114;13.906;2023-04-06T01:11:33;14.82;;;7.97;;
33367;SDS011;19724;51.114;13.906;2023-04-06T01:13:58;15.48;;;7.20;;
33367;SDS011;19724;51.114;13.906;2023-04-06T01:16:23;11.98;;;7.25;;
33367;SDS011;19724;51.114;13.906;2023-04-06T01:18:49;13.77;;;8.18;;
33367;SDS011;19724;51.114;13.906;2023-04-06T01:21:15;8.45;;;6.10;;
33367;SDS011;19724;51.114;13.906;2023-04-06T01:23:44;11.73;;;6.70;;
33367;SDS011;19724;51.114;13.906;2023-04-06T01:26:11;15.88;;;6.68;;
33367;SDS011;19724;51.114;13.906;2023-04-06T01:28:36;11.27;;;5.78;;
33367;SDS011;19724;51.114;13.906;2023-04-06T01:31:02;12.85;;;6.90;;
33367;SDS011;19724;51.114;13.906;2023-04-06T01:33:29;11.98;;;6.88;;
33367;SDS011;19724;51.114;13.906;2023-04-06T01:35:55;14.43;;;8.02;;
33367;SDS011;19724;51.114;13.906;2023-04-06T01:38:20;11.10;;;8.50;;
33367;SDS011;19724;51.114;13.906;2023-04-06T01:40:46;10.73;;;6.68;;
33367;SDS011;19724;51.114;13.906;2023-04-06T01:43:11;12.18;;;7.30;;
33367;SDS011;19724;51.114;13.906;2023-04-06T01:45:37;9.45;;;5.93;;
33367;SDS011;19724;51.114;13.906;2023-04-06T01:48:03;12.00;;;6.97;;
33367;SDS011;19724;51.114;13.906;2023-04-06T01:50:28;12.23;;;7.30;;
33367;SDS011;19724;51.114;13.906;2023-04-06T01:52:54;11.80;;;7.90;;
33367;SDS011;19724;51.114;13.906;2023-04-06T01:55:19;18.90;;;7.20;;
33367;SDS011;19724;51.114;13.906;2023-04-06T01:57:45;10.50;;;7.30;;
33367;SDS011;19724;51.114;13.906;2023-04-06T02:00:11;12.02;;;7.28;;
33367;SDS011;19724;51.114;13.906;2023-04-06T02:02:37;12.95;;;7.82;;
33367;SDS011;19724;51.114;13.906;2023-04-06T02:05:02;14.15;;;8.05;;
33367;SDS011;19724;51.114;13.906;2023-04-06T02:07:28;14.15;;;8.18;;
33367;SDS011;19724;51.114;13.906;2023-04-06T02:09:54;16.23;;;8.02;;
33367;SDS011;19724;51.114;13.906;2023-04-06T02:12:20;13.38;;;8.55;;
33367;SDS011;19724;51.114;13.906;2023-04-06T02:14:46;13.00;;;8.15;;
33367;SDS011;19724;51.114;13.906;2023-04-06T02:17:11;13.07;;;7.50;;
33367;SDS011;19724;51.114;13.906;2023-04-06T02:19:36;16.85;;;7.68;;
33367;SDS011;19724;51.114;13.906;2023-04-06T02:22:02;14.10;;;8.90;;
33367;SDS011;19724;51.114;13.906;2023-04-06T02:24:27;13.13;;;7.53;;
33367;SDS011;19724;51.114;13.906;2023-04-06T02:26:53;15.60;;;8.55;;
33367;SDS011;19724;51.114;13.906;2023-04-06T02:29:18;15.45;;;8.00;;
33367;SDS011;19724;51.114;13.906;2023-04-06T02:31:45;14.93;;;9.68;;
33367;SDS011;19724;51.114;13.906;2023-04-06T02:34:10;16.10;;;8.52;;
33367;SDS011;19724;51.114;13.906;2023-04-06T02:36:42;10.38;;;7.30;;
33367;SDS011;19724;51.114;13.906;2023-04-06T02:39:08;10.60;;;7.88;;
33367;SDS011;19724;51.114;13.906;2023-04-06T02:41:34;11.98;;;7.45;;
33367;SDS011;19724;51.114;13.906;2023-04-06T02:44:00;16.75;;;7.82;;
33367;SDS011;19724;51.114;13.906;2023-04-06T02:46:25;12.77;;;9.18;;
33367;SDS011;19724;51.114;13.906;2023-04-06T02:48:51;13.63;;;8.10;;
33367;SDS011;19724;51.114;13.906;2023-04-06T02:51:16;13.18;;;8.25;;
33367;SDS011;19724;51.114;13.906;2023-04-06T02:53:42;10.25;;;7.65;;
33367;SDS011;19724;51.114;13.906;2023-04-06T02:56:07;10.73;;;6.97;;
33367;SDS011;19724;51.114;13.906;2023-04-06T02:58:32;13.13;;;7.93;;
33367;SDS011;19724;51.114;13.906;2023-04-06T03:00:58;13.00;;;8.77;;
33367;SDS011;19724;51.114;13.906;2023-04-06T03:03:23;12.70;;;7.47;;
33367;SDS011;19724;51.114;13.906;2023-04-06T03:05:49;11.40;;;7.50;;
33367;SDS011;19724;51.114;13.906;2023-04-06T03:08:14;14.10;;;7.90;;
33367;SDS011;19724;51.114;13.906;2023-04-06T03:10:40;12.00;;;7.13;;
33367;SDS011;19724;51.114;13.906;2023-04-06T03:13:05;10.35;;;7.35;;
33367;SDS011;19724;51.114;13.906;2023-04-06T03:15:31;13.60;;;7.22;;
33367;SDS011;19724;51.114;13.906;2023-04-06T03:17:57;10.18;;;6.53;;
33367;SDS011;19724;51.114;13.906;2023-04-06T03:20:23;13.75;;;7.82;;
33367;SDS011;19724;51.114;13.906;2023-04-06T03:22:48;13.70;;;8.13;;
33367;SDS011;19724;51.114;13.906;2023-04-06T03:25:14;12.80;;;7.30;;
33367;SDS011;19724;51.114;13.906;2023-04-06T03:27:39;11.25;;;7.20;;
33367;SDS011;19724;51.114;13.906;2023-04-06T03:30:05;11.38;;;7.28;;
33367;SDS011;19724;51.114;13.906;2023-04-06T03:32:31;19.25;;;7.65;;
33367;SDS011;19724;51.114;13.906;2023-04-06T03:34:56;12.65;;;7.95;;
33367;SDS011;19724;51.114;13.906;2023-04-06T03:37:22;13.30;;;8.25;;
33367;SDS011;19724;51.114;13.906;2023-04-06T03:39:47;12.75;;;7.05;;
33367;SDS011;19724;51.114;13.906;2023-04-06T03:42:13;11.55;;;7.63;;
33367;SDS011;19724;51.114;13.906;2023-04-06T03:44:38;9.40;;;6.75;;
33367;SDS011;19724;51.114;13.906;2023-04-06T03:47:04;15.32;;;7.70;;
33367;SDS011;19724;51.114;13.906;2023-04-06T03:49:29;16.05;;;7.50;;
33367;SDS011;19724;51.114;13.906;2023-04-06T03:51:55;13.93;;;8.27;;
33367;SDS011;19724;51.114;13.906;2023-04-06T03:54:21;14.85;;;7.95;;
33367;SDS011;19724;51.114;13.906;2023-04-06T03:56:47;12.23;;;7.72;;
33367;SDS011;19724;51.114;13.906;2023-04-06T03:59:12;17.38;;;8.30;;
33367;SDS011;19724;51.114;13.906;2023-04-06T04:01:37;11.75;;;8.23;;
33367;SDS011;19724;51.114;13.906;2023-04-06T04:04:04;18.55;;;7.55;;
33367;SDS011;19724;51.114;13.906;2023-04-06T04:06:29;13.75;;;7.93;;
33367;SDS011;19724;51.114;13.906;2023-04-06T04:08:55;13.15;;;8.02;;
33367;SDS011;19724;51.114;13.906;2023-04-06T04:11:20;13.65;;;7.93;;
33367;SDS011;19724;51.114;13.906;2023-04-06T04:13:46;15.23;;;8.52;;
33367;SDS011;19724;51.114;13.906;2023-04-06T04:16:12;12.57;;;9.00;;
33367;SDS011;19724;51.114;13.906;2023-04-06T04:18:37;13.90;;;8.38;;
33367;SDS011;19724;51.114;13.906;2023-04-06T04:21:03;13.95;;;8.13;;
33367;SDS011;19724;51.114;13.906;2023-04-06T04:23:28;17.45;;;8.05;;
33367;SDS011;19724;51.114;13.906;2023-04-06T04:25:54;13.68;;;7.63;;
33367;SDS011;19724;51.114;13.906;2023-04-06T04:28:19;13.35;;;8.45;;
33367;SDS011;19724;51.114;13.906;2023-04-06T04:30:45;18.13;;;8.65;;
33367;SDS011;19724;51.114;13.906;2023-04-06T04:33:11;17.38;;;9.23;;
33367;SDS011;19724;51.114;13.906;2023-04-06T04:35:36;17.45;;;9.45;;
33367;SDS011;19724;51.114;13.906;2023-04-06T04:38:02;15.75;;;9.63;;
33367;SDS011;19724;51.114;13.906;2023-04-06T04:40:27;16.35;;;8.90;;
33367;SDS011;19724;51.114;13.906;2023-04-06T04:42:53;17.70;;;9.07;;
33367;SDS011;19724;51.114;13.906;2023-04-06T04:45:18;16.60;;;9.00;;
33367;SDS011;19724;51.114;13.906;2023-04-06T04:47:45;13.88;;;8.98;;
33367;SDS011;19724;51.114;13.906;2023-04-06T04:50:10;18.42;;;9.98;;
33367;SDS011;19724;51.114;13.906;2023-04-06T04:52:37;16.55;;;10.00;;
33367;SDS011;19724;51.114;13.906;2023-04-06T04:55:02;17.38;;;10.23;;
33367;SDS011;19724;51.114;13.906;2023-04-06T04:57:28;17.73;;;10.30;;
33367;SDS011;19724;51.114;13.906;2023-04-06T04:59:54;18.92;;;10.13;;
33367;SDS011;19724;51.114;13.906;2023-04-06T05:02:20;18.48;;;9.88;;
33367;SDS011;19724;51.114;13.906;2023-04-06T05:04:45;14.73;;;10.98;;
33367;SDS011;19724;51.114;13.906;2023-04-06T05:07:11;22.05;;;12.52;;
33367;SDS011;19724;51.114;13.906;2023-04-06T05:09:36;22.08;;;12.80;;
33367;SDS011;19724;51.114;13.906;2023-04-06T05:12:02;23.77;;;13.95;;
33367;SDS011;19724;51.114;13.906;2023-04-06T05:14:27;26.30;;;13.32;;
33367;SDS011;19724;51.114;13.906;2023-04-06T05:16:53;22.08;;;12.07;;
33367;SDS011;19724;51.114;13.906;2023-04-06T05:19:19;21.88;;;12.30;;
33367;SDS011;19724;51.114;13.906;2023-04-06T05:21:45;28.73;;;14.85;;
33367;SDS011;19724;51.114;13.906;2023-04-06T05:24:10;21.17;;;12.38;;
33367;SDS011;19724;51.114;13.906;2023-04-06T05:26:36;27.90;;;12.43;;
33367;SDS011;19724;51.114;13.906;2023-04-06T05:29:01;22.95;;;12.90;;
33367;SDS011;19724;51.114;13.906;2023-04-06T05:31:27;19.23;;;11.40;;
33367;SDS011;19724;51.114;13.906;2023-04-06T05:33:53;19.92;;;10.77;;
33367;SDS011;19724;51.114;13.906;2023-04-06T05:36:19;19.55;;;10.90;;
33367;SDS011;19724;51.114;13.906;2023-04-06T05:38:45;18.30;;;10.73;;
33367;SDS011;19724;51.114;13.906;2023-04-06T05:41:10;18.17;;;10.73;;
33367;SDS011;19724;51.114;13.906;2023-04-06T05:43:36;14.68;;;9.77;;
33367;SDS011;19724;51.114;13.906;2023-04-06T05:46:01;24.42;;;12.20;;
33367;SDS011;19724;51.114;13.906;2023-04-06T05:48:27;15.23;;;10.02;;
33367;SDS011;19724;51.114;13.906;2023-04-06T05:50:53;14.52;;;9.18;;
33367;SDS011;19724;51.114;13.906;2023-04-06T05:53:18;19.85;;;10.25;;
33367;SDS011;19724;51.114;13.906;2023-04-06T05:55:45;17.80;;;10.90;;
33367;SDS011;19724;51.114;13.906;2023-04-06T05:58:11;18.42;;;9.82;;
33367;SDS011;19724;51.114;13.906;2023-04-06T06:00:37;13.82;;;9.18;;
33367;SDS011;19724;51.114;13.906;2023-04-06T06:03:02;14.95;;;10.60;;
33367;SDS011;19724;51.114;13.906;2023-04-06T06:05:33;17.75;;;8.40;;
33367;SDS011;19724;51.114;13.906;2023-04-06T06:07:59;14.60;;;7.95;;
33367;SDS011;19724;51.114;13.906;2023-04-06T06:10:26;13.88;;;7.53;;
33367;SDS011;19724;51.114;13.906;2023-04-06T06:12:52;19.35;;;8.75;;
33367;SDS011;19724;51.114;13.906;2023-04-06T06:15:18;16.95;;;8.25;;
33367;SDS011;19724;51.114;13.906;2023-04-06T06:17:43;14.52;;;8.50;;
33367;SDS011;19724;51.114;13.906;2023-04-06T06:20:09;13.13;;;6.50;;
33367;SDS011;19724;51.114;13.906;2023-04-06T06:22:35;12.45;;;7.88;;
33367;SDS011;19724;51.114;13.906;2023-04-06T06:25:00;11.25;;;7.50;;
33367;SDS011;19724;51.114;13.906;2023-04-06T06:27:26;13.20;;;5.85;;
33367;SDS011;19724;51.114;13.906;2023-04-06T06:29:51;13.35;;;7.05;;
33367;SDS011;19724;51.114;13.906;2023-04-06T06:32:17;16.13;;;6.35;;
33367;SDS011;19724;51.114;13.906;2023-04-06T06:34:43;13.75;;;6.20;;
33367;SDS011;19724;51.114;13.906;2023-04-06T06:37:08;10.13;;;6.28;;
33367;SDS011;19724;51.114;13.906;2023-04-06T06:39:34;20.00;;;7.07;;
33367;SDS011;19724;51.114;13.906;2023-04-06T06:41:59;14.85;;;6.97;;
33367;SDS011;19724;51.114;13.906;2023-04-06T06:44:26;13.50;;;6.53;;
33367;SDS011;19724;51.114;13.906;2023-04-06T06:46:51;9.98;;;6.85;;
33367;SDS011;19724;51.114;13.906;2023-04-06T06:49:17;14.38;;;7.05;;
33367;SDS011;19724;51.114;13.906;2023-04-06T06:51:43;15.93;;;7.25;;
33367;SDS011;19724;51.114;13.906;2023-04-06T06:54:09;15.60;;;7.70;;
33367;SDS011;19724;51.114;13.906;2023-04-06T06:56:34;13.23;;;7.07;;
33367;SDS011;19724;51.114;13.906;2023-04-06T06:59:02;13.30;;;7.20;;
33367;SDS011;19724;51.114;13.906;2023-04-06T07:01:27;9.10;;;5.60;;
33367;SDS011;19724;51.114;13.906;2023-04-06T07:03:53;9.88;;;5.65;;
33367;SDS011;19724;51.114;13.906;2023-04-06T07:06:18;11.52;;;6.63;;
33367;SDS011;19724;51.114;13.906;2023-04-06T07:08:43;10.77;;;6.20;;
33367;SDS011;19724;51.114;13.906;2023-04-06T07:11:09;12.80;;;6.15;;
33367;SDS011;19724;51.114;13.906;2023-04-06T07:13:34;9.00;;;6.00;;
33367;SDS011;19724;51.114;13.906;2023-04-06T07:16:00;9.85;;;6.53;;
33367;SDS011;19724;51.114;13.906;2023-04-06T07:18:25;12.88;;;6.25;;
33367;SDS011;19724;51.114;13.906;2023-04-06T07:20:51;9.93;;;5.90;;
33367;SDS011;19724;51.114;13.906;2023-04-06T07:23:16;7.38;;;5.13;;
33367;SDS011;19724;51.114;13.906;2023-04-06T07:25:42;9.50;;;5.40;;
33367;SDS011;19724;51.114;13.906;2023-04-06T07:28:07;7.95;;;4.63;;
33367;SDS011;19724;51.114;13.906;2023-04-06T07:30:33;8.85;;;5.07;;
33367;SDS011;19724;51.114;13.906;2023-04-06T07:32:58;10.80;;;5.15;;
33367;SDS011;19724;51.114;13.906;2023-04-06T07:35:24;13.30;;;6.57;;
33367;SDS011;19724;51.114;13.906;2023-04-06T07:37:51;10.73;;;6.20;;
33367;SDS011;19724;51.114;13.906;2023-04-06T07:40:17;8.20;;;5.15;;
33367;SDS011;19724;51.114;13.906;2023-04-06T07:42:44;10.82;;;4.97;;
33367;SDS011;19724;51.114;13.906;2023-04-06T07:47:39;8.25;;;4.63;;
33367;SDS011;19724;51.114;13.906;2023-04-06T07:50:05;12.07;;;6.15;;
33367;SDS011;19724;51.114;13.906;2023-04-06T07:52:30;7.63;;;4.13;;
33367;SDS011;19724;51.114;13.906;2023-04-06T07:54:59;6.45;;;3.47;;
33367;SDS011;19724;51.114;13.906;2023-04-06T07:57:25;7.22;;;4.55;;
33367;SDS011;19724;51.114;13.906;2023-04-06T07:59:50;7.70;;;3.72;;
33367;SDS011;19724;51.114;13.906;2023-04-06T08:02:16;9.52;;;4.20;;
33367;SDS011;19724;51.114;13.906;2023-04-06T08:04:41;9.13;;;4.40;;
33367;SDS011;19724;51.114;13.906;2023-04-06T08:07:07;7.90;;;3.60;;
33367;SDS011;19724;51.114;13.906;2023-04-06T08:09:32;6.78;;;3.55;;
33367;SDS011;19724;51.114;13.906;2023-04-06T08:11:58;7.25;;;4.50;;
33367;SDS011;19724;51.114;13.906;2023-04-06T08:14:23;6.30;;;3.78;;
33367;SDS011;19724;51.114;13.906;2023-04-06T08:16:49;6.57;;;3.38;;
33367;SDS011;19724;51.114;13.906;2023-04-06T08:19:15;7.32;;;3.45;;
33367;SDS011;19724;51.114;13.906;2023-04-06T08:21:42;6.70;;;3.97;;
33367;SDS011;19724;51.114;13.906;2023-04-06T08:24:08;7.18;;;4.10;;
33367;SDS011;19724;51.114;13.906;2023-04-06T08:26:33;6.80;;;3.63;;
33367;SDS011;19724;51.114;13.906;2023-04-06T08:28:59;7.07;;;4.00;;
33367;SDS011;19724;51.114;13.906;2023-04-06T08:31:24;7.28;;;2.72;;
33367;SDS011;19724;51.114;13.906;2023-04-06T08:33:51;6.38;;;2.20;;
33367;SDS011;19724;51.114;13.906;2023-04-06T08:36:16;6.32;;;2.85;;
33367;SDS011;19724;51.114;13.906;2023-04-06T08:38:45;9.50;;;3.40;;
33367;SDS011;19724;51.114;13.906;2023-04-06T08:41:11;5.63;;;3.10;;
33367;SDS011;19724;51.114;13.906;2023-04-06T08:43:41;4.70;;;2.67;;
33367;SDS011;19724;51.114;13.906;2023-04-06T08:46:09;4.93;;;2.65;;
33367;SDS011;19724;51.114;13.906;2023-04-06T08:48:36;5.72;;;3.10;;
33367;SDS011;19724;51.114;13.906;2023-04-06T08:51:03;8.15;;;3.42;;
33367;SDS011;19724;51.114;13.906;2023-04-06T08:53:29;6.43;;;3.05;;
33367;SDS011;19724;51.114;13.906;2023-04-06T08:55:55;7.03;;;3.08;;
33367;SDS011;19724;51.114;13.906;2023-04-06T08:58:22;8.88;;;3.45;;
33367;SDS011;19724;51.114;13.906;2023-04-06T09:00:49;5.50;;;3.15;;
33367;SDS011;19724;51.114;13.906;2023-04-06T09:03:15;5.72;;;3.20;;
33367;SDS011;19724;51.114;13.906;2023-04-06T09:05:41;7.57;;;3.45;;
33367;SDS011;19724;51.114;13.906;2023-04-06T09:08:07;5.55;;;3.40;;
33367;SDS011;19724;51.114;13.906;2023-04-06T09:10:33;5.25;;;3.10;;
33367;SDS011;19724;51.114;13.906;2023-04-06T09:13:03;5.68;;;2.85;;
33367;SDS011;19724;51.114;13.906;2023-04-06T09:15:32;6.57;;;3.10;;
33367;SDS011;19724;51.114;13.906;2023-04-06T09:17:59;6.60;;;3.85;;
33367;SDS011;19724;51.114;13.906;2023-04-06T09:20:25;4.53;;;2.90;;
33367;SDS011;19724;51.114;13.906;2023-04-06T09:22:52;10.00;;;3.58;;
33367;SDS011;19724;51.114;13.906;2023-04-06T09:25:18;6.40;;;3.35;;
33367;SDS011;19724;51.114;13.906;2023-04-06T09:27:46;5.15;;;2.90;;
33367;SDS011;19724;51.114;13.906;2023-04-06T09:30:12;4.60;;;3.05;;
33367;SDS011;19724;51.114;13.906;2023-04-06T09:32:46;4.45;;;2.88;;
33367;SDS011;19724;51.114;13.906;2023-04-06T09:35:19;6.10;;;3.10;;
33367;SDS011;19724;51.114;13.906;2023-04-06T09:37:46;7.00;;;3.38;;
33367;SDS011;19724;51.114;13.906;2023-04-06T09:40:12;5.80;;;3.35;;
33367;SDS011;19724;51.114;13.906;2023-04-06T09:42:42;5.25;;;3.33;;
33367;SDS011;19724;51.114;13.906;2023-04-06T09:45:10;6.85;;;3.80;;
33367;SDS011;19724;51.114;13.906;2023-04-06T09:47:36;5.68;;;2.92;;
33367;SDS011;19724;51.114;13.906;2023-04-06T09:50:02;4.72;;;2.90;;
33367;SDS011;19724;51.114;13.906;2023-04-06T09:52:38;5.35;;;2.97;;
33367;SDS011;19724;51.114;13.906;2023-04-06T09:55:07;3.78;;;2.70;;
33367;SDS011;19724;51.114;13.906;2023-04-06T10:00:32;4.80;;;2.40;;
33367;SDS011;19724;51.114;13.906;2023-04-06T10:03:20;4.18;;;2.10;;
33367;SDS011;19724;51.114;13.906;2023-04-06T10:05:57;3.92;;;2.10;;
33367;SDS011;19724;51.114;13.906;2023-04-06T10:08:28;5.00;;;2.53;;
33367;SDS011;19724;51.114;13.906;2023-04-06T10:10:57;3.22;;;2.20;;
33367;SDS011;19724;51.114;13.906;2023-04-06T10:13:23;4.82;;;2.83;;
33367;SDS011;19724;51.114;13.906;2023-04-06T10:15:49;6.20;;;3.10;;
33367;SDS011;19724;51.114;13.906;2023-04-06T10:18:16;4.57;;;2.63;;
33367;SDS011;19724;51.114;13.906;2023-04-06T10:20:43;4.18;;;2.67;;
33367;SDS011;19724;51.114;13.906;2023-04-06T10:23:21;4.88;;;2.67;;
33367;SDS011;19724;51.114;13.906;2023-04-06T10:26:00;5.45;;;3.50;;
33367;SDS011;19724;51.114;13.906;2023-04-06T10:28:31;8.50;;;3.05;;
33367;SDS011;19724;51.114;13.906;2023-04-06T10:30:59;4.25;;;2.58;;
33367;SDS011;19724;51.114;13.906;2023-04-06T10:33:26;6.13;;;3.38;;
33367;SDS011;19724;51.114;13.906;2023-04-06T10:35:52;5.10;;;2.85;;
33367;SDS011;19724;51.114;13.906;2023-04-06T10:38:18;6.05;;;2.90;;
33367;SDS011;19724;51.114;13.906;2023-04-06T10:40:46;5.97;;;3.08;;
33367;SDS011;19724;51.114;13.906;2023-04-06T10:43:13;7.32;;;2.85;;
33367;SDS011;19724;51.114;13.906;2023-04-06T10:45:56;15.70;;;3.33;;
33367;SDS011;19724;51.114;13.906;2023-04-06T10:48:22;9.75;;;2.97;;
33367;SDS011;19724;51.114;13.906;2023-04-06T10:50:49;4.45;;;3.05;;
33367;SDS011;19724;51.114;13.906;2023-04-06T10:53:23;4.97;;;2.83;;
33367;SDS011;19724;51.114;13.906;2023-04-06T10:55:53;7.32;;;3.38;;
33367;SDS011;19724;51.114;13.906;2023-04-06T10:58:20;4.80;;;3.38;;
33367;SDS011;19724;51.114;13.906;2023-04-06T11:00:49;6.05;;;3.03;;
33367;SDS011;19724;51.114;13.906;2023-04-06T11:03:15;8.13;;;2.60;;
33367;SDS011;19724;51.114;13.906;2023-04-06T11:05:45;5.97;;;2.70;;
33367;SDS011;19724;51.114;13.906;2023-04-06T11:08:28;6.82;;;3.45;;
33367;SDS011;19724;51.114;13.906;2023-04-06T11:11:11;4.25;;;2.85;;
33367;SDS011;19724;51.114;13.906;2023-04-06T11:13:44;6.50;;;3.47;;
33367;SDS011;19724;51.114;13.906;2023-04-06T11:16:17;5.72;;;3.15;;
33367;SDS011;19724;51.114;13.906;2023-04-06T11:21:18;4.82;;;2.42;;
33367;SDS011;19724;51.114;13.906;2023-04-06T11:23:45;5.93;;;2.78;;
33367;SDS011;19724;51.114;13.906;2023-04-06T11:26:11;6.05;;;3.60;;
33367;SDS011;19724;51.114;13.906;2023-04-06T11:28:37;6.18;;;3.28;;
33367;SDS011;19724;51.114;13.906;2023-04-06T11:31:04;5.20;;;2.33;;
33367;SDS011;19724;51.114;13.906;2023-04-06T11:33:34;3.83;;;2.53;;
33367;SDS011;19724;51.114;13.906;2023-04-06T11:36:01;4.80;;;3.20;;
33367;SDS011;19724;51.114;13.906;2023-04-06T11:38:26;6.03;;;2.88;;
33367;SDS011;19724;51.114;13.906;2023-04-06T11:40:52;6.88;;;2.95;;
33367;SDS011;19724;51.114;13.906;2023-04-06T11:43:25;4.63;;;2.58;;
33367;SDS011;19724;51.114;13.906;2023-04-06T11:46:02;6.47;;;3.22;;
33367;SDS011;19724;51.114;13.906;2023-04-06T11:48:29;5.80;;;2.90;;
33367;SDS011;19724;51.114;13.906;2023-04-06T11:50:56;7.03;;;3.38;;
33367;SDS011;19724;51.114;13.906;2023-04-06T11:53:22;4.63;;;2.33;;
33367;SDS011;19724;51.114;13.906;2023-04-06T11:55:48;5.00;;;3.35;;
33367;SDS011;19724;51.114;13.906;2023-04-06T11:58:13;5.38;;;2.88;;
33367;SDS011;19724;51.114;13.906;2023-04-06T12:00:39;4.35;;;3.03;;
33367;SDS011;19724;51.114;13.906;2023-04-06T12:03:09;5.13;;;2.75;;
33367;SDS011;19724;51.114;13.906;2023-04-06T12:05:35;5.55;;;3.30;;
33367;SDS011;19724;51.114;13.906;2023-04-06T12:08:01;5.50;;;3.25;;
33367;SDS011;19724;51.114;13.906;2023-04-06T12:10:26;4.72;;;3.28;;
33367;SDS011;19724;51.114;13.906;2023-04-06T12:12:52;6.43;;;3.50;;
33367;SDS011;19724;51.114;13.906;2023-04-06T12:15:17;5.85;;;3.85;;
33367;SDS011;19724;51.114;13.906;2023-04-06T12:17:43;6.60;;;4.00;;
33367;SDS011;19724;51.114;13.906;2023-04-06T12:20:08;5.57;;;3.13;;
33367;SDS011;19724;51.114;13.906;2023-04-06T12:22:35;5.55;;;3.45;;
33367;SDS011;19724;51.114;13.906;2023-04-06T12:25:01;8.85;;;3.42;;
33367;SDS011;19724;51.114;13.906;2023-04-06T12:27:26;5.82;;;3.10;;
33367;SDS011;19724;51.114;13.906;2023-04-06T12:29:52;5.20;;;3.78;;
33367;SDS011;19724;51.114;13.906;2023-04-06T12:32:18;6.22;;;3.60;;
33367;SDS011;19724;51.114;13.906;2023-04-06T12:34:44;5.20;;;3.25;;
33367;SDS011;19724;51.114;13.906;2023-04-06T12:37:10;5.45;;;2.88;;
33367;SDS011;19724;51.114;13.906;2023-04-06T12:39:35;4.97;;;3.25;;
33367;SDS011;19724;51.114;13.906;2023-04-06T12:42:01;6.30;;;3.13;;
33367;SDS011;19724;51.114;13.906;2023-04-06T12:44:27;7.43;;;3.42;;
33367;SDS011;19724;51.114;13.906;2023-04-06T12:46:53;9.20;;;3.95;;
33367;SDS011;19724;51.114;13.906;2023-04-06T12:49:18;4.97;;;3.20;;
33367;SDS011;19724;51.114;13.906;2023-04-06T12:51:44;6.40;;;3.20;;
33367;SDS011;19724;51.114;13.906;2023-04-06T12:54:10;5.47;;;3.03;;
33367;SDS011;19724;51.114;13.906;2023-04-06T12:56:36;5.53;;;3.08;;
33367;SDS011;19724;51.114;13.906;2023-04-06T12:59:02;4.75;;;3.30;;
33367;SDS011;19724;51.114;13.906;2023-04-06T13:01:27;4.90;;;3.22;;
33367;SDS011;19724;51.114;13.906;2023-04-06T13:03:53;8.10;;;3.20;;
33367;SDS011;19724;51.114;13.906;2023-04-06T13:06:19;6.07;;;3.67;;
33367;SDS011;19724;51.114;13.906;2023-04-06T13:08:44;5.38;;;2.92;;
33367;SDS011;19724;51.114;13.906;2023-04-06T13:11:12;5.30;;;3.47;;
33367;SDS011;19724;51.114;13.906;2023-04-06T13:13:37;6.40;;;3.45;;
33367;SDS011;19724;51.114;13.906;2023-04-06T13:16:04;8.80;;;3.38;;
33367;SDS011;19724;51.114;13.906;2023-04-06T13:18:33;5.35;;;3.28;;
33367;SDS011;19724;51.114;13.906;2023-04-06T13:21:01;5.72;;;3.20;;
33367;SDS011;19724;51.114;13.906;2023-04-06T13:23:27;5.95;;;3.35;;
33367;SDS011;19724;51.114;13.906;2023-04-06T13:28:28;9.20;;;3.22;;
33367;SDS011;19724;51.114;13.906;2023-04-06T13:30:54;6.30;;;4.25;;
33367;SDS011;19724;51.114;13.906;2023-04-06T13:33:20;5.25;;;3.10;;
33367;SDS011;19724;51.114;13.906;2023-04-06T13:35:46;8.55;;;3.60;;
33367;SDS011;19724;51.114;13.906;2023-04-06T13:38:11;6.00;;;3.50;;
33367;SDS011;19724;51.114;13.906;2023-04-06T13:40:41;6.32;;;3.25;;
33367;SDS011;19724;51.114;13.906;2023-04-06T13:43:07;6.38;;;3.05;;
33367;SDS011;19724;51.114;13.906;2023-04-06T13:45:33;6.85;;;3.08;;
33367;SDS011;19724;51.114;13.906;2023-04-06T13:47:59;5.80;;;3.03;;
33367;SDS011;19724;51.114;13.906;2023-04-06T13:50:27;5.38;;;3.05;;
33367;SDS011;19724;51.114;13.906;2023-04-06T13:52:53;5.55;;;3.17;;
33367;SDS011;19724;51.114;13.906;2023-04-06T13:55:19;4.07;;;2.72;;
33367;SDS011;19724;51.114;13.906;2023-04-06T13:57:45;4.85;;;3.20;;
33367;SDS011;19724;51.114;13.906;2023-04-06T14:00:10;8.25;;;3.65;;
33367;SDS011;19724;51.114;13.906;2023-04-06T14:02:37;6.18;;;3.10;;
33367;SDS011;19724;51.114;13.906;2023-04-06T14:05:03;4.97;;;2.88;;
33367;SDS011;19724;51.114;13.906;2023-04-06T14:07:30;8.45;;;3.30;;
33367;SDS011;19724;51.114;13.906;2023-04-06T14:09:55;6.63;;;3.10;;
33367;SDS011;19724;51.114;13.906;2023-04-06T14:12:20;6.55;;;3.13;;
33367;SDS011;19724;51.114;13.906;2023-04-06T14:14:46;5.90;;;3.75;;
33367;SDS011;19724;51.114;13.906;2023-04-06T14:17:12;4.95;;;3.38;;
33367;SDS011;19724;51.114;13.906;2023-04-06T14:19:37;8.15;;;3.58;;
33367;SDS011;19724;51.114;13.906;2023-04-06T14:22:03;5.72;;;3.30;;
33367;SDS011;19724;51.114;13.906;2023-04-06T14:24:29;4.50;;;3.22;;
33367;SDS011;19724;51.114;13.906;2023-04-06T14:26:55;4.68;;;2.65;;
33367;SDS011;19724;51.114;13.906;2023-04-06T14:29:21;5.13;;;3.08;;
33367;SDS011;19724;51.114;13.906;2023-04-06T14:31:47;5.05;;;2.90;;